Time;durP1;ratioP1;P1;durP2;ratioP2;P2;SDS_P1;SDS_P2;PMS_P1;PMS_P2;Temp;Humidity;BMP_temperature;BMP_pressure;BME280_temperature;BME280_humidity;BME280_pressure;Samples;Min_cycle;Max_cycle;Signal;HPM_P1;HPM_P2
2022/07/14 00:00:32;;;;;;;;;;;17.60;99.90;;;;;;9189543;19;19915;-67
2022/07/14 00:03:39;;;;;;;;;;;17.60;99.90;;;;;;9185237;19;19922;-66
2022/07/14 00:06:42;;;;;;;;;;;17.50;99.90;;;;;;9190215;19;19915;-66
2022/07/14 00:09:46;;;;;;;;;;;17.60;99.90;;;;;;9188101;19;19922;-66
2022/07/14 00:12:50;;;;;;;;;;;17.50;99.90;;;;;;9185752;19;19952;-66
2022/07/14 00:15:54;;;;;;;;;;;17.50;99.90;;;;;;9188940;19;19978;-66
2022/07/14 00:19:00;;;;;;;;;;;17.30;99.90;;;;;;9185204;19;19923;-66
2022/07/14 00:22:04;;;;;;;;;;;17.50;99.90;;;;;;9188327;19;19919;-66
2022/07/14 00:25:08;;;;;;;;;;;17.40;99.90;;;;;;9187641;19;19919;-66
2022/07/14 00:28:21;;;;;;;;;;;17.30;99.90;;;;;;9190168;19;19914;-66
2022/07/14 00:31:24;;;;;;;;;;;17.30;99.90;;;;;;9185568;19;19940;-66
2022/07/14 00:34:30;;;;;;;;;;;17.10;99.90;;;;;;9188102;19;19923;-66
2022/07/14 00:37:34;;;;;;;;;;;17.20;99.90;;;;;;9185005;19;19952;-66
2022/07/14 00:40:38;;;;;;;;;;;17.00;99.90;;;;;;9184549;19;19911;-66
2022/07/14 00:43:41;;;;;;;;;;;17.10;99.90;;;;;;9183052;19;19938;-67
2022/07/14 00:46:45;;;;;;;;;;;17.20;99.90;;;;;;9189232;19;19970;-66
2022/07/14 00:49:53;;;;;;;;;;;17.20;99.90;;;;;;9184075;19;20570;-66
2022/07/14 00:52:57;;;;;;;;;;;17.10;99.90;;;;;;9186620;19;19926;-66
2022/07/14 00:56:00;;;;;;;;;;;17.00;99.90;;;;;;9188724;19;19927;-66
2022/07/14 00:59:04;;;;;;;;;;;17.00;99.90;;;;;;9184334;19;19918;-66
2022/07/14 01:02:07;;;;;;;;;;;17.10;99.90;;;;;;9187341;19;19923;-66
2022/07/14 01:05:14;;;;;;;;;;;17.10;99.90;;;;;;9183393;19;20337;-66
2022/07/14 01:08:17;;;;;;;;;;;17.00;99.90;;;;;;9183681;19;19929;-66
2022/07/14 01:11:21;;;;;;;;;;;16.90;99.90;;;;;;9183370;19;20267;-66
2022/07/14 01:14:25;;;;;;;;;;;16.70;99.90;;;;;;9183934;19;19974;-66
2022/07/14 01:17:29;;;;;;;;;;;16.80;99.90;;;;;;9185504;19;19919;-66
2022/07/14 01:20:35;;;;;;;;;;;16.50;99.90;;;;;;9183592;19;19910;-66
2022/07/14 01:23:41;;;;;;;;;;;16.70;99.90;;;;;;9181598;19;19940;-66
2022/07/14 01:26:45;;;;;;;;;;;16.70;99.90;;;;;;9182884;19;19917;-66
2022/07/14 01:29:48;;;;;;;;;;;16.60;99.90;;;;;;9182970;19;19915;-66
2022/07/14 01:32:52;;;;;;;;;;;16.60;99.90;;;;;;9184955;19;19933;-66
2022/07/14 01:35:56;;;;;;;;;;;16.60;99.90;;;;;;9184470;19;19929;-66
2022/07/14 01:39:02;;;;;;;;;;;16.60;99.90;;;;;;9182906;19;19923;-66
2022/07/14 01:42:06;;;;;;;;;;;16.50;99.90;;;;;;9182209;19;20277;-67
2022/07/14 01:45:10;;;;;;;;;;;16.50;99.90;;;;;;9179707;19;19923;-66
2022/07/14 01:48:14;;;;;;;;;;;16.40;99.90;;;;;;9182286;19;19915;-66
2022/07/14 01:51:17;;;;;;;;;;;15.80;99.90;;;;;;9186142;19;19918;-66
2022/07/14 01:54:26;;;;;;;;;;;16.10;99.90;;;;;;9176070;19;19918;-66
2022/07/14 01:57:30;;;;;;;;;;;16.10;99.90;;;;;;9182511;19;19952;-66
2022/07/14 02:00:34;;;;;;;;;;;16.10;99.90;;;;;;9179105;19;19918;-66
2022/07/14 02:03:37;;;;;;;;;;;16.00;99.90;;;;;;9177414;19;20356;-66
2022/07/14 02:06:43;;;;;;;;;;;16.10;99.90;;;;;;9182677;19;19926;-66
2022/07/14 02:13:05;;;;;;;;;;;15.90;99.90;;;;;;9171701;19;19922;-66
2022/07/14 02:16:10;;;;;;;;;;;15.90;99.90;;;;;;9172503;19;20389;-66
2022/07/14 02:19:14;;;;;;;;;;;15.90;99.90;;;;;;9176822;19;19929;-66
2022/07/14 02:22:17;;;;;;;;;;;15.80;99.90;;;;;;9171575;19;19925;-66
2022/07/14 02:25:23;;;;;;;;;;;15.90;99.90;;;;;;9168255;19;19932;-66
2022/07/14 02:28:27;;;;;;;;;;;15.70;99.90;;;;;;9176492;19;19925;-66
2022/07/14 02:31:31;;;;;;;;;;;15.70;99.90;;;;;;9178007;19;19919;-66
2022/07/14 02:34:35;;;;;;;;;;;15.60;99.90;;;;;;9181728;19;19954;-66
2022/07/14 02:37:39;;;;;;;;;;;15.30;99.90;;;;;;9181988;19;19982;-66
2022/07/14 02:40:45;;;;;;;;;;;15.60;99.90;;;;;;9178282;19;19914;-66
2022/07/14 02:43:49;;;;;;;;;;;15.50;99.90;;;;;;9179924;19;19944;-66
2022/07/14 02:46:53;;;;;;;;;;;15.40;99.90;;;;;;9179239;19;19961;-66
2022/07/14 02:49:56;;;;;;;;;;;15.50;99.90;;;;;;9181153;19;19922;-66
2022/07/14 02:53:00;;;;;;;;;;;15.40;99.90;;;;;;9035668;19;2777195;-66
2022/07/14 02:56:07;;;;;;;;;;;15.30;99.90;;;;;;9178325;19;19918;-66
2022/07/14 02:59:11;;;;;;;;;;;15.40;99.90;;;;;;9182163;19;19923;-66
2022/07/14 03:02:14;;;;;;;;;;;15.40;99.90;;;;;;9179730;19;19940;-66
2022/07/14 03:05:18;;;;;;;;;;;15.40;99.90;;;;;;9180234;19;19955;-66
2022/07/14 03:08:22;;;;;;;;;;;15.50;99.90;;;;;;9178421;19;20080;-66
2022/07/14 03:11:28;;;;;;;;;;;15.30;99.90;;;;;;9179117;19;19970;-66
2022/07/14 03:14:32;;;;;;;;;;;15.20;99.90;;;;;;9178905;19;19948;-66
2022/07/14 03:17:38;;;;;;;;;;;15.30;99.90;;;;;;9180359;19;19911;-66
2022/07/14 03:20:42;;;;;;;;;;;15.30;99.90;;;;;;9178289;19;19974;-66
2022/07/14 03:23:45;;;;;;;;;;;15.20;99.90;;;;;;9174901;19;19918;-66
2022/07/14 03:26:52;;;;;;;;;;;15.10;99.90;;;;;;9178708;19;19952;-66
2022/07/14 03:29:55;;;;;;;;;;;15.20;99.90;;;;;;9182791;19;19919;-66
2022/07/14 03:32:59;;;;;;;;;;;15.10;99.90;;;;;;9179020;19;20349;-66
2022/07/14 03:36:02;;;;;;;;;;;14.90;99.90;;;;;;9182779;19;20337;-66
2022/07/14 03:39:06;;;;;;;;;;;15.00;99.90;;;;;;9181924;19;19922;-66
2022/07/14 03:42:12;;;;;;;;;;;16.10;99.90;;;;;;9178045;19;19915;-66
2022/07/14 03:45:16;;;;;;;;;;;15.10;99.90;;;;;;9175933;19;19914;-66
2022/07/14 03:48:20;;;;;;;;;;;15.10;99.90;;;;;;9179738;19;20355;-66
2022/07/14 03:51:24;;;;;;;;;;;15.00;99.90;;;;;;9181883;19;20281;-66
2022/07/14 03:54:27;;;;;;;;;;;14.80;99.90;;;;;;9175194;19;19925;-66
2022/07/14 03:57:34;;;;;;;;;;;14.80;99.90;;;;;;9177590;19;19966;-66
2022/07/14 04:00:37;;;;;;;;;;;14.90;99.90;;;;;;9179361;19;19951;-66
2022/07/14 04:03:41;;;;;;;;;;;14.90;99.90;;;;;;9176570;19;19914;-66
2022/07/14 04:06:45;;;;;;;;;;;14.90;99.90;;;;;;9177188;19;19929;-66
2022/07/14 04:09:49;;;;;;;;;;;14.80;99.90;;;;;;9178099;19;19974;-66
2022/07/14 04:12:56;;;;;;;;;;;14.60;99.90;;;;;;9176681;19;19915;-66
2022/07/14 04:15:59;;;;;;;;;;;14.70;99.90;;;;;;9176914;19;19915;-65
2022/07/14 04:19:05;;;;;;;;;;;14.60;99.90;;;;;;9175927;19;19919;-66
2022/07/14 04:22:08;;;;;;;;;;;14.50;99.90;;;;;;9176305;19;20242;-66
2022/07/14 04:25:12;;;;;;;;;;;14.40;99.90;;;;;;9177037;19;20441;-66
2022/07/14 04:28:18;;;;;;;;;;;14.50;99.90;;;;;;9176287;19;19910;-65
2022/07/14 04:31:23;;;;;;;;;;;14.50;99.90;;;;;;9179689;19;20415;-66
2022/07/14 04:34:26;;;;;;;;;;;14.40;99.90;;;;;;9182219;19;19922;-66
2022/07/14 04:37:30;;;;;;;;;;;14.40;99.90;;;;;;9187489;19;19934;-66
2022/07/14 04:40:33;;;;;;;;;;;14.60;99.90;;;;;;9187186;19;19922;-66
2022/07/14 04:43:40;;;;;;;;;;;14.60;99.90;;;;;;9189623;19;19914;-66
2022/07/14 04:46:43;;;;;;;;;;;14.60;99.90;;;;;;9188307;19;19923;-65
2022/07/14 04:53:03;;;;;;;;;;;14.60;99.90;;;;;;9188260;19;19974;-66
2022/07/14 04:56:07;;;;;;;;;;;14.50;99.90;;;;;;9184109;19;19915;-65
2022/07/14 04:59:13;;;;;;;;;;;14.40;99.90;;;;;;9186784;19;19918;-66
2022/07/14 05:02:17;;;;;;;;;;;14.50;99.90;;;;;;9186640;19;19923;-66
2022/07/14 05:05:20;;;;;;;;;;;14.50;99.90;;;;;;9180644;19;19919;-66
2022/07/14 05:08:24;;;;;;;;;;;14.40;99.90;;;;;;9187567;19;19919;-66
2022/07/14 05:11:28;;;;;;;;;;;14.50;99.90;;;;;;9183732;19;20280;-65
2022/07/14 05:14:34;;;;;;;;;;;14.40;99.90;;;;;;9183636;19;20377;-66
2022/07/14 05:17:38;;;;;;;;;;;14.60;99.90;;;;;;9188421;19;20229;-66
2022/07/14 05:20:42;;;;;;;;;;;14.50;99.90;;;;;;9183766;19;19918;-66
2022/07/14 05:23:46;;;;;;;;;;;14.60;99.90;;;;;;9182697;19;19922;-66
2022/07/14 05:26:50;;;;;;;;;;;14.70;99.90;;;;;;9183166;19;20355;-66
2022/07/14 05:29:56;;;;;;;;;;;14.60;99.90;;;;;;9186879;19;19922;-66
2022/07/14 05:32:59;;;;;;;;;;;15.20;99.90;;;;;;9186576;19;19953;-66
2022/07/14 05:36:03;;;;;;;;;;;14.90;99.90;;;;;;9186125;19;20009;-66
2022/07/14 05:39:07;;;;;;;;;;;14.80;99.90;;;;;;9182234;19;19953;-66
2022/07/14 05:42:12;;;;;;;;;;;14.90;99.90;;;;;;9182562;19;20316;-65
2022/07/14 05:45:18;;;;;;;;;;;14.90;99.90;;;;;;9182413;19;20280;-66
2022/07/14 05:48:22;;;;;;;;;;;14.90;99.90;;;;;;9181785;19;19915;-66
2022/07/14 05:51:25;;;;;;;;;;;14.90;99.90;;;;;;9185692;19;19919;-66
2022/07/14 05:54:29;;;;;;;;;;;15.50;99.90;;;;;;9181530;19;19915;-66
2022/07/14 05:57:33;;;;;;;;;;;15.00;99.90;;;;;;9180851;19;19915;-66
2022/07/14 06:00:39;;;;;;;;;;;15.00;99.90;;;;;;9184528;19;19926;-66
2022/07/14 06:03:43;;;;;;;;;;;15.00;99.90;;;;;;9180142;19;19926;-66
2022/07/14 06:06:47;;;;;;;;;;;15.10;99.90;;;;;;9182627;19;19922;-66
2022/07/14 06:09:51;;;;;;;;;;;15.10;99.90;;;;;;9182390;19;19915;-66
2022/07/14 06:12:54;;;;;;;;;;;15.00;99.90;;;;;;9181364;19;19946;-65
2022/07/14 06:16:01;;;;;;;;;;;15.10;99.90;;;;;;9184919;19;19922;-66
2022/07/14 06:19:05;;;;;;;;;;;15.20;99.90;;;;;;9186132;19;19974;-66
2022/07/14 06:22:09;;;;;;;;;;;16.00;99.90;;;;;;9180499;19;19917;-65
2022/07/14 06:25:12;;;;;;;;;;;15.20;99.90;;;;;;9183895;19;19928;-65
2022/07/14 06:28:17;;;;;;;;;;;15.20;99.90;;;;;;9180275;19;19919;-66
2022/07/14 06:31:23;;;;;;;;;;;15.20;99.90;;;;;;9184230;19;20348;-65
2022/07/14 06:34:27;;;;;;;;;;;15.20;99.90;;;;;;9182963;19;20002;-66
2022/07/14 06:37:31;;;;;;;;;;;15.40;99.90;;;;;;9179806;19;19919;-65
2022/07/14 06:40:35;;;;;;;;;;;15.30;99.90;;;;;;9181451;19;19918;-65
2022/07/14 06:43:38;;;;;;;;;;;15.30;99.90;;;;;;9183664;19;19922;-65
2022/07/14 06:46:45;;;;;;;;;;;15.40;99.90;;;;;;9178833;19;19919;-65
2022/07/14 06:49:48;;;;;;;;;;;15.20;99.90;;;;;;9183657;19;19919;-65
2022/07/14 06:52:52;;;;;;;;;;;15.40;99.90;;;;;;9179631;19;19914;-66
2022/07/14 06:55:55;;;;;;;;;;;15.30;99.90;;;;;;9179169;19;19942;-65
2022/07/14 06:58:59;;;;;;;;;;;15.30;99.90;;;;;;9182503;19;19994;-65
2022/07/14 07:02:05;;;;;;;;;;;15.50;99.90;;;;;;9178788;19;19911;-65
2022/07/14 07:08:28;;;;;;;;;;;15.50;99.90;;;;;;9179759;19;19923;-66
2022/07/14 07:11:32;;;;;;;;;;;15.60;99.90;;;;;;9178792;19;19911;-65
2022/07/14 07:14:38;;;;;;;;;;;15.60;99.90;;;;;;9179513;19;19934;-65
2022/07/14 07:17:44;;;;;;;;;;;15.70;99.90;;;;;;9177530;19;20346;-65
2022/07/14 07:20:48;;;;;;;;;;;15.70;99.90;;;;;;9178235;19;20311;-66
2022/07/14 07:23:54;;;;;;;;;;;15.70;99.90;;;;;;9178051;19;19922;-65
2022/07/14 07:26:57;;;;;;;;;;;15.70;99.90;;;;;;9180618;19;20307;-65
2022/07/14 07:30:01;;;;;;;;;;;15.80;99.90;;;;;;9180888;19;19919;-65
2022/07/14 07:33:08;;;;;;;;;;;15.80;99.90;;;;;;9180861;19;19931;-66
2022/07/14 07:36:11;;;;;;;;;;;15.90;99.90;;;;;;9181576;19;19933;-66
2022/07/14 07:39:15;;;;;;;;;;;16.00;99.90;;;;;;9180603;19;20341;-66
2022/07/14 07:42:18;;;;;;;;;;;15.90;99.90;;;;;;9181323;19;19919;-66
2022/07/14 07:45:22;;;;;;;;;;;16.10;99.90;;;;;;9176039;19;19922;-66
2022/07/14 07:48:28;;;;;;;;;;;16.20;99.90;;;;;;9177640;19;19915;-66
2022/07/14 07:51:32;;;;;;;;;;;16.20;99.90;;;;;;9178230;19;19919;-66
2022/07/14 07:54:36;;;;;;;;;;;16.30;99.90;;;;;;9174963;19;19960;-66
2022/07/14 07:57:40;;;;;;;;;;;16.20;99.90;;;;;;9176853;19;19966;-66
2022/07/14 08:00:44;;;;;;;;;;;16.40;99.90;;;;;;9178787;19;19988;-66
2022/07/14 08:03:50;;;;;;;;;;;16.50;99.90;;;;;;9181979;19;19922;-66
2022/07/14 08:06:53;;;;;;;;;;;16.40;99.90;;;;;;9177320;19;19923;-66
2022/07/14 08:09:58;;;;;;;;;;;16.40;99.90;;;;;;9181205;19;19930;-66
2022/07/14 08:13:01;;;;;;;;;;;16.40;99.90;;;;;;9186265;19;19985;-66
2022/07/14 08:16:05;;;;;;;;;;;16.40;99.90;;;;;;9185874;19;19919;-66
2022/07/14 08:19:11;;;;;;;;;;;16.40;99.90;;;;;;9186363;19;19926;-66
2022/07/14 08:22:15;;;;;;;;;;;16.40;99.90;;;;;;9187458;19;19919;-66
2022/07/14 08:25:19;;;;;;;;;;;16.50;99.90;;;;;;9185848;19;20421;-66
2022/07/14 08:28:23;;;;;;;;;;;16.70;99.90;;;;;;9185098;19;20411;-66
2022/07/14 08:31:26;;;;;;;;;;;16.80;99.90;;;;;;9185181;19;20356;-66
2022/07/14 08:34:33;;;;;;;;;;;16.70;99.90;;;;;;9184970;19;20272;-66
2022/07/14 08:37:36;;;;;;;;;;;16.60;99.90;;;;;;9183597;19;20336;-66
2022/07/14 08:40:40;;;;;;;;;;;16.60;99.90;;;;;;9187183;19;19914;-66
2022/07/14 08:43:45;;;;;;;;;;;16.70;99.90;;;;;;9185315;19;20279;-66
2022/07/14 08:46:49;;;;;;;;;;;16.60;99.90;;;;;;9181676;19;19910;-66
2022/07/14 08:49:56;;;;;;;;;;;16.80;99.90;;;;;;9183619;19;19918;-66
2022/07/14 08:52:59;;;;;;;;;;;16.90;99.90;;;;;;9182287;19;19929;-66
2022/07/14 08:56:03;;;;;;;;;;;17.80;99.90;;;;;;9184194;19;19915;-67
2022/07/14 08:59:06;;;;;;;;;;;17.10;99.90;;;;;;9183665;19;19970;-66
2022/07/14 09:02:10;;;;;;;;;;;17.20;99.90;;;;;;9183930;19;19926;-67
2022/07/14 09:05:20;;;;;;;;;;;17.20;99.90;;;;;;9182452;19;19910;-66
2022/07/14 09:08:23;;;;;;;;;;;17.20;99.90;;;;;;9184308;19;19944;-66
2022/07/14 09:11:27;;;;;;;;;;;18.90;99.90;;;;;;9183694;19;20329;-66
2022/07/14 09:15:44;;;;;;;;;;;17.30;99.90;;;;;;9186530;19;20287;-66
2022/07/14 09:17:58;;;;;;;;;;;17.40;99.90;;;;;;9183377;19;19914;-66
2022/07/14 09:21:20;;;;;;;;;;;17.20;99.90;;;;;;9182677;19;19928;-66
2022/07/14 09:24:24;;;;;;;;;;;17.40;99.90;;;;;;9183747;19;19954;-66
2022/07/14 09:27:28;;;;;;;;;;;17.50;99.90;;;;;;9179475;19;19929;-66
2022/07/14 09:30:32;;;;;;;;;;;17.50;99.90;;;;;;9184031;19;20267;-66
2022/07/14 09:33:37;;;;;;;;;;;17.60;99.90;;;;;;9182502;19;19921;-66
2022/07/14 09:36:43;;;;;;;;;;;17.60;99.90;;;;;;9182719;19;19921;-67
2022/07/14 09:39:53;;;;;;;;;;;17.50;99.90;;;;;;9185815;19;19949;-66
2022/07/14 09:42:58;;;;;;;;;;;17.70;99.90;;;;;;9182254;19;19915;-66
2022/07/14 09:46:02;;;;;;;;;;;17.70;99.90;;;;;;9180336;19;19914;-66
2022/07/14 09:49:15;;;;;;;;;;;17.90;99.90;;;;;;9185958;19;19935;-66
2022/07/14 09:52:32;;;;;;;;;;;17.70;99.90;;;;;;9181107;19;20282;-66
2022/07/14 09:55:36;;;;;;;;;;;17.60;99.90;;;;;;9182696;19;20249;-66
2022/07/14 09:58:44;;;;;;;;;;;17.70;99.90;;;;;;9180371;19;19914;-66
2022/07/14 10:01:47;;;;;;;;;;;17.70;99.90;;;;;;9180736;19;20343;-66
2022/07/14 10:04:52;;;;;;;;;;;17.80;99.90;;;;;;9181642;19;19922;-66
2022/07/14 10:07:59;;;;;;;;;;;17.90;99.90;;;;;;9182388;19;19919;-66
2022/07/14 10:11:03;;;;;;;;;;;17.90;99.90;;;;;;9180351;19;19924;-67
2022/07/14 10:14:08;;;;;;;;;;;17.70;99.90;;;;;;9180026;19;19922;-67
2022/07/14 10:17:12;;;;;;;;;;;17.70;99.90;;;;;;9179867;19;19918;-67
2022/07/14 10:20:16;;;;;;;;;;;17.70;99.90;;;;;;9178513;19;19926;-67
2022/07/14 10:23:23;;;;;;;;;;;17.70;99.90;;;;;;9182834;19;19941;-67
2022/07/14 10:26:27;;;;;;;;;;;17.90;99.90;;;;;;9181896;19;19915;-68
2022/07/14 10:29:32;;;;;;;;;;;17.90;99.90;;;;;;9179492;19;20344;-67
2022/07/14 10:32:38;;;;;;;;;;;18.00;99.90;;;;;;9178403;19;20385;-67
2022/07/14 10:35:50;;;;;;;;;;;18.00;99.90;;;;;;9182813;19;19915;-67
2022/07/14 10:39:04;;;;;;;;;;;18.10;99.90;;;;;;9182228;19;20347;-72
2022/07/14 10:42:14;;;;;;;;;;;18.10;99.90;;;;;;9177522;19;19926;-68
2022/07/14 10:45:17;;;;;;;;;;;18.30;99.90;;;;;;9178375;19;19922;-70
2022/07/14 10:48:31;;;;;;;;;;;18.40;99.90;;;;;;9178048;19;19918;-68
2022/07/14 10:51:35;;;;;;;;;;;18.50;99.70;;;;;;9181640;19;19934;-67
2022/07/14 10:54:41;;;;;;;;;;;18.20;99.90;;;;;;9177607;19;19915;-69
2022/07/14 10:58:00;;;;;;;;;;;18.20;99.80;;;;;;9182591;19;19915;-68
2022/07/14 11:01:09;;;;;;;;;;;18.30;99.80;;;;;;9178409;19;19919;-68
2022/07/14 11:04:14;;;;;;;;;;;18.40;99.90;;;;;;9176810;19;19982;-68
2022/07/14 11:07:33;;;;;;;;;;;18.30;99.90;;;;;;9175962;19;19918;-67
2022/07/14 11:11:08;;;;;;;;;;;18.20;99.60;;;;;;9180079;19;20272;-68
2022/07/14 11:14:15;;;;;;;;;;;18.40;99.90;;;;;;9180831;19;19925;-68
2022/07/14 11:17:39;;;;;;;;;;;18.30;99.90;;;;;;9176363;19;20317;-67
2022/07/14 11:20:50;;;;;;;;;;;18.20;99.90;;;;;;9176530;19;20293;-67
2022/07/14 11:23:55;;;;;;;;;;;18.00;99.40;;;;;;9176377;19;19922;-67
2022/07/14 11:26:59;;;;;;;;;;;18.00;99.90;;;;;;9176894;19;19919;-67
2022/07/14 11:30:23;;;;;;;;;;;17.80;99.90;;;;;;9178813;19;20348;-66
2022/07/14 11:33:33;;;;;;;;;;;17.70;99.90;;;;;;9179576;19;19919;-66
2022/07/14 11:36:35;;;;;;;;;;;17.70;99.90;;;;;;9178708;19;20401;-66
2022/07/14 11:39:40;;;;;;;;;;;17.60;99.90;;;;;;9178108;19;19919;-66
2022/07/14 11:42:43;;;;;;;;;;;17.70;99.90;;;;;;9180047;19;20334;-66
2022/07/14 11:45:59;;;;;;;;;;;17.80;99.90;;;;;;9185711;19;19919;-67
2022/07/14 11:49:03;;;;;;;;;;;17.80;99.90;;;;;;9189832;19;19915;-67
2022/07/14 11:52:09;;;;;;;;;;;17.90;99.90;;;;;;9187455;19;19919;-67
2022/07/14 11:55:13;;;;;;;;;;;17.90;99.90;;;;;;9188944;19;20352;-65
2022/07/14 11:58:17;;;;;;;;;;;18.10;99.90;;;;;;9188858;19;20378;-67
2022/07/14 12:01:24;;;;;;;;;;;18.30;99.90;;;;;;9189371;19;19960;-68
2022/07/14 12:04:27;;;;;;;;;;;18.30;99.90;;;;;;9187760;19;20296;-67
2022/07/14 12:07:45;;;;;;;;;;;18.60;99.90;;;;;;9184387;19;19929;-67
2022/07/14 12:10:49;;;;;;;;;;;18.90;99.90;;;;;;9191323;19;19923;-67
2022/07/14 12:13:53;;;;;;;;;;;19.20;98.60;;;;;;9186827;19;20379;-67
2022/07/14 12:17:00;;;;;;;;;;;19.20;99.40;;;;;;9190202;19;19918;-67
2022/07/14 12:20:04;;;;;;;;;;;19.20;98.80;;;;;;9187893;19;19974;-67
2022/07/14 12:23:11;;;;;;;;;;;19.20;98.40;;;;;;9188226;19;19933;-68
2022/07/14 12:26:14;;;;;;;;;;;19.30;98.60;;;;;;9185911;19;19945;-66
2022/07/14 12:29:18;;;;;;;;;;;19.00;98.50;;;;;;9187460;19;19918;-67
2022/07/14 12:32:29;;;;;;;;;;;19.40;99.10;;;;;;9188818;19;19918;-68
2022/07/14 12:35:33;;;;;;;;;;;19.30;98.40;;;;;;9187318;19;20341;-67
2022/07/14 12:38:37;;;;;;;;;;;19.20;97.90;;;;;;9186267;19;19944;-66
2022/07/14 12:41:43;;;;;;;;;;;19.20;98.10;;;;;;9186557;19;19974;-66
2022/07/14 12:45:02;;;;;;;;;;;19.40;97.90;;;;;;9188091;19;19918;-67
2022/07/14 12:48:14;;;;;;;;;;;19.30;96.90;;;;;;9182863;19;19923;-67
2022/07/14 12:51:18;;;;;;;;;;;19.20;97.60;;;;;;9187748;19;19915;-67
2022/07/14 12:54:33;;;;;;;;;;;18.70;97.90;;;;;;9182927;19;20237;-67
2022/07/14 12:57:37;;;;;;;;;;;18.80;98.20;;;;;;9187249;19;19952;-67
2022/07/14 13:00:44;;;;;;;;;;;18.50;98.10;;;;;;9185255;19;20276;-67
2022/07/14 13:03:58;;;;;;;;;;;18.50;98.90;;;;;;9186227;19;19926;-67
2022/07/14 13:07:02;;;;;;;;;;;18.50;99.00;;;;;;9183674;19;19930;-67
2022/07/14 13:10:10;;;;;;;;;;;18.40;99.50;;;;;;9186138;19;20237;-67
2022/07/14 13:13:29;;;;;;;;;;;18.60;98.50;;;;;;9184355;19;19925;-66
2022/07/14 13:16:32;;;;;;;;;;;18.60;98.50;;;;;;9187591;19;19970;-65
2022/07/14 13:19:39;;;;;;;;;;;18.90;97.20;;;;;;9184770;19;19911;-65
2022/07/14 13:22:42;;;;;;;;;;;18.80;96.20;;;;;;9184514;19;19929;-65
2022/07/14 13:25:47;;;;;;;;;;;18.80;96.70;;;;;;9185939;19;19974;-65
2022/07/14 13:28:54;;;;;;;;;;;18.70;96.70;;;;;;9185921;19;19923;-65
2022/07/14 13:31:58;;;;;;;;;;;18.80;97.00;;;;;;9182827;19;19923;-66
2022/07/14 13:35:05;;;;;;;;;;;18.60;96.40;;;;;;9187131;19;19918;-65
2022/07/14 13:38:09;;;;;;;;;;;18.60;97.30;;;;;;9181972;19;19915;-65
2022/07/14 13:41:14;;;;;;;;;;;18.60;98.00;;;;;;9184164;19;19915;-65
2022/07/14 13:44:18;;;;;;;;;;;18.50;98.00;;;;;;9186378;19;19923;-66
2022/07/14 13:47:22;;;;;;;;;;;18.70;97.80;;;;;;9185182;19;19926;-66
2022/07/14 13:53:45;;;;;;;;;;;18.50;97.80;;;;;;9179881;19;19927;-67
2022/07/14 13:56:48;;;;;;;;;;;18.60;98.50;;;;;;9183087;19;20007;-67
2022/07/14 13:59:52;;;;;;;;;;;18.70;97.90;;;;;;9183708;19;20882;-67
2022/07/14 14:06:14;;;;;;;;;;;18.80;99.00;;;;;;9181023;19;19938;-67
2022/07/14 14:09:18;;;;;;;;;;;19.20;99.10;;;;;;9180130;19;19978;-68
2022/07/14 14:12:22;;;;;;;;;;;19.90;98.20;;;;;;9179209;19;19918;-67
2022/07/14 14:15:26;;;;;;;;;;;20.40;97.20;;;;;;9184683;19;19915;-67
2022/07/14 14:18:30;;;;;;;;;;;20.40;95.60;;;;;;9183380;19;19923;-67
2022/07/14 14:21:36;;;;;;;;;;;20.20;95.90;;;;;;9183325;19;19918;-67
2022/07/14 14:24:40;;;;;;;;;;;20.00;96.80;;;;;;9182746;19;19919;-67
2022/07/14 14:27:44;;;;;;;;;;;20.00;96.50;;;;;;9177742;19;19915;-67
2022/07/14 14:30:48;;;;;;;;;;;19.50;97.40;;;;;;9179738;19;19941;-65
2022/07/14 14:33:51;;;;;;;;;;;18.30;97.50;;;;;;9183399;19;19990;-66
2022/07/14 14:36:58;;;;;;;;;;;19.30;96.90;;;;;;9183137;19;19960;-65
2022/07/14 14:40:02;;;;;;;;;;;19.20;97.50;;;;;;9183917;19;19919;-65
2022/07/14 14:43:06;;;;;;;;;;;19.00;97.00;;;;;;9182738;19;20591;-65
2022/07/14 14:46:10;;;;;;;;;;;19.50;97.10;;;;;;9180017;19;20315;-66
2022/07/14 14:49:14;;;;;;;;;;;19.50;95.60;;;;;;9180418;19;19927;-65
2022/07/14 14:52:20;;;;;;;;;;;19.30;95.70;;;;;;9175112;19;20253;-66
2022/07/14 14:55:25;;;;;;;;;;;19.20;95.50;;;;;;9182135;19;19922;-66
2022/07/14 14:58:29;;;;;;;;;;;19.20;95.20;;;;;;9178704;19;19930;-66
2022/07/14 15:01:32;;;;;;;;;;;19.10;95.40;;;;;;9177640;19;19945;-65
2022/07/14 15:04:36;;;;;;;;;;;19.10;95.20;;;;;;9180776;19;19999;-67
2022/07/14 15:07:42;;;;;;;;;;;19.00;95.00;;;;;;9177343;19;19929;-67
2022/07/14 15:10:46;;;;;;;;;;;18.90;96.20;;;;;;9177775;19;19957;-67
2022/07/14 15:13:52;;;;;;;;;;;19.50;95.80;;;;;;9176034;19;19919;-65
2022/07/14 15:16:56;;;;;;;;;;;19.10;95.40;;;;;;9180769;19;19926;-67
2022/07/14 15:19:59;;;;;;;;;;;18.90;94.30;;;;;;9175309;19;19937;-64
2022/07/14 15:23:06;;;;;;;;;;;18.90;95.10;;;;;;9175942;19;19964;-65
2022/07/14 15:26:09;;;;;;;;;;;19.40;94.10;;;;;;9179214;19;19925;-65
2022/07/14 15:29:19;;;;;;;;;;;19.30;94.70;;;;;;9176887;19;20353;-65
2022/07/14 15:32:23;;;;;;;;;;;19.50;95.80;;;;;;9177152;19;19918;-65
2022/07/14 15:35:26;;;;;;;;;;;20.00;97.70;;;;;;9179261;19;20329;-65
2022/07/14 15:41:14;;;;;;;;;;;20.10;97.50;;;;;;9175588;19;20369;-66
2022/07/14 15:41:55;;;;;;;;;;;19.90;97.70;;;;;;9175635;19;19915;-65
2022/07/14 15:45:00;;;;;;;;;;;19.60;97.80;;;;;;9177674;19;20343;-65
2022/07/14 15:48:03;;;;;;;;;;;19.20;98.40;;;;;;9179311;19;19926;-66
2022/07/14 15:51:07;;;;;;;;;;;19.00;99.00;;;;;;9177886;19;20321;-65
2022/07/14 15:54:14;;;;;;;;;;;18.80;98.80;;;;;;9173445;19;20329;-65
2022/07/14 15:57:18;;;;;;;;;;;18.60;99.80;;;;;;9178526;19;19918;-70
2022/07/14 16:00:21;;;;;;;;;;;18.50;99.90;;;;;;9178633;19;20290;-68
2022/07/14 16:03:25;;;;;;;;;;;18.30;99.90;;;;;;9176957;19;19951;-68
2022/07/14 16:06:29;;;;;;;;;;;18.20;99.90;;;;;;9180044;19;20285;-68
2022/07/14 16:09:35;;;;;;;;;;;18.10;99.90;;;;;;9168151;19;19919;-65
2022/07/14 16:12:40;;;;;;;;;;;17.80;99.90;;;;;;9174050;19;19911;-67
2022/07/14 16:15:44;;;;;;;;;;;17.50;99.90;;;;;;9177991;19;20272;-65
2022/07/14 16:18:48;;;;;;;;;;;17.40;99.90;;;;;;9179594;19;19915;-67
2022/07/14 16:21:53;;;;;;;;;;;17.40;99.90;;;;;;9171297;19;19943;-71
2022/07/14 16:24:59;;;;;;;;;;;17.70;99.90;;;;;;9176105;19;19922;-73
2022/07/14 16:28:03;;;;;;;;;;;17.80;99.90;;;;;;9176218;19;19923;-67
2022/07/14 16:31:07;;;;;;;;;;;17.90;99.90;;;;;;9177194;19;19929;-67
2022/07/14 16:34:11;;;;;;;;;;;18.10;99.90;;;;;;9186028;19;20352;-67
2022/07/14 16:37:14;;;;;;;;;;;18.40;99.90;;;;;;9186811;19;20337;-67
2022/07/14 16:40:21;;;;;;;;;;;18.50;99.90;;;;;;9188755;19;20004;-67
2022/07/14 16:43:25;;;;;;;;;;;18.70;99.90;;;;;;9183356;19;19922;-67
2022/07/14 16:46:29;;;;;;;;;;;19.00;99.90;;;;;;9183218;19;19927;-67
2022/07/14 16:49:32;;;;;;;;;;;19.20;99.90;;;;;;9185921;19;19922;-67
2022/07/14 16:52:36;;;;;;;;;;;19.20;99.90;;;;;;9185948;19;20252;-66
2022/07/14 16:55:43;;;;;;;;;;;19.00;99.90;;;;;;9183423;19;20345;-68
2022/07/14 16:58:47;;;;;;;;;;;18.90;99.90;;;;;;9183910;19;20273;-67
2022/07/14 17:01:51;;;;;;;;;;;18.90;99.90;;;;;;9183046;19;19926;-67
2022/07/14 17:04:54;;;;;;;;;;;19.10;99.90;;;;;;8853621;19;19922;-67
2022/07/14 17:10:37;;;;;;;;;;;19.60;99.90;;;;;;8151651;19;3009090;-67
2022/07/14 17:13:42;;;;;;;;;;;19.90;98.90;;;;;;7957448;19;19915;-68
2022/07/14 17:19:52;;;;;;;6.03;2.17;;;19.50;99.80;;;;;;8462941;19;20353;-68
2022/07/14 17:22:57;;;;;;;10.77;2.45;;;19.50;99.30;;;;;;8051927;19;100856;-68
2022/07/14 17:26:01;;;;;;;6.32;2.28;;;19.50;98.50;;;;;;8438729;19;20082;-71
2022/07/14 17:29:06;;;;;;;10.77;3.17;;;18.80;99.20;;;;;;9114808;19;20025;-70
2022/07/14 17:32:10;;;;;;;9.73;3.47;;;21.00;99.90;;;;;;8457698;19;105324;-71
2022/07/14 17:35:16;;;;;;;13.25;3.97;;;18.60;99.80;;;;;;9220324;19;20014;-72
2022/07/14 17:38:20;;;;;;;7.63;2.60;;;19.00;99.90;;;;;;9212180;19;20503;-68
2022/07/14 17:41:25;;;;;;;9.15;2.30;;;19.20;99.90;;;;;;9225445;19;20018;-69
2022/07/14 17:44:29;;;;;;;6.55;2.28;;;19.20;99.70;;;;;;9223303;19;20018;-66
2022/07/14 17:47:33;;;;;;;6.03;2.03;;;19.20;98.90;;;;;;9222138;19;20479;-66
2022/07/14 17:50:39;;;;;;;11.02;3.15;;;19.50;98.40;;;;;;9223754;19;20119;-68
2022/07/14 17:53:43;;;;;;;7.90;2.20;;;19.30;98.50;;;;;;9222269;19;20014;-68
2022/07/14 17:56:47;;;;;;;8.25;2.35;;;19.00;98.60;;;;;;9224227;19;20015;-68
2022/07/14 17:59:51;;;;;;;7.50;2.10;;;18.80;99.20;;;;;;9213241;19;20078;-68
2022/07/14 18:02:55;;;;;;;8.38;2.50;;;18.50;99.90;;;;;;9223308;19;20014;-68
2022/07/14 18:06:01;;;;;;;5.63;2.10;;;18.10;99.90;;;;;;9222154;19;20029;-69
2022/07/14 18:09:06;;;;;;;9.32;2.15;;;18.20;99.90;;;;;;9220707;19;20018;-68
2022/07/14 18:12:10;;;;;;;6.78;1.92;;;18.20;99.90;;;;;;9221628;19;20531;-69